Sharptown, New Jersey
Current Conditions -  °F | °C
As of 5:51 PM on Thursday 18 Dec 2014 (Local Time) from KILG Reporting Station
Clear Clear  
Wind Chill: 28°   Ceiling: Unl
Heat Index: 36°   Visibility: 10mi
Dew Point: 24°   Wind: 13mph
Humidity: 62%   Direction: 300°WNW
Pressure: 30.06"   Gusts: NA
Location:  39.6335°N, 75.3233°W
Report Text: KILG 182251Z 30011KT 10SM CLR 02/M04 A3006 RMK AO2 SLP179 T00221044
Loading
Personal Weather Stations






























Interactive Weather Map New forecast layout! Learn more

10-Day Weather Forecast

Advertisements
Track Severe Weather on mobile